Terminal Aerodrome Forecast
Issued by NWS

Home | Current Version | Previous Version | Text Only | Print | Product List | Glossary On
Versions: 1 2 3 4 5 6 7 8 9 10 11 12 13 14 15 16 17
000
FTUS41 KBOX 190534
TAFACK
TAF
KACK 190534Z 1906/2006 00000KT P6SM BKN200
     FM191000 27006KT P6SM BKN140
     FM191400 28010G17KT P6SM FEW250
     FM192000 32011G17KT P6SM FEW050 FEW250
     FM200000 36009KT P6SM FEW250
     FM200500 02013G20KT P6SM SKC=

USA.gov is the U.S. government's official web portal to all federal, state and local government web resources and services.